Time;durP1;ratioP1;P1;durP2;ratioP2;P2;SDS_P1;SDS_P2;PMS_P1;PMS_P2;Temp;Humidity;BMP_temperature;BMP_pressure;BME280_temperature;BME280_humidity;BME280_pressure;Samples;Min_cycle;Max_cycle;Signal;HPM_P1;HPM_P2
2023/11/04 00:01:49;;;;;;;6.53;2.50;;;;;;;6.71;100.00;98484.88;5041832;28;20576;-65
2023/11/04 00:04:14;;;;;;;5.13;2.50;;;;;;;6.84;100.00;98482.03;5045012;28;20033;-65
2023/11/04 00:06:39;;;;;;;5.55;2.40;;;;;;;6.83;100.00;98480.31;5043136;28;20029;-65
2023/11/04 00:09:06;;;;;;;5.05;2.50;;;;;;;6.86;100.00;98481.13;5043729;28;20121;-65
2023/11/04 00:11:31;;;;;;;5.82;2.40;;;;;;;6.96;100.00;98473.91;5044092;28;20028;-65
2023/11/04 00:13:57;;;;;;;7.82;2.60;;;;;;;6.93;100.00;98477.50;5042526;28;20037;-65
2023/11/04 00:16:22;;;;;;;7.55;2.53;;;;;;;6.95;100.00;98480.09;5043755;28;20581;-69
2023/11/04 00:18:48;;;;;;;7.78;2.60;;;;;;;6.97;100.00;98478.28;5041818;28;20037;-69
2023/11/04 00:21:13;;;;;;;8.77;2.72;;;;;;;6.98;100.00;98477.41;5044473;28;20082;-70
2023/11/04 00:23:38;;;;;;;6.18;2.50;;;;;;;6.98;100.00;98474.78;5042957;28;20057;-69
2023/11/04 00:26:04;;;;;;;6.53;2.60;;;;;;;7.06;100.00;98464.13;5043673;28;20398;-69
2023/11/04 00:28:31;;;;;;;7.20;2.50;;;;;;;6.98;100.00;98477.41;5043866;28;20107;-69
2023/11/04 00:30:56;;;;;;;7.57;2.50;;;;;;;7.00;100.00;98478.22;5041898;28;20053;-69
2023/11/04 00:33:22;;;;;;;6.07;2.60;;;;;;;7.02;100.00;98470.31;5045016;28;20066;-69
2023/11/04 00:35:50;;;;;;;6.88;2.60;;;;;;;7.06;100.00;98486.00;5037600;28;20032;-69
2023/11/04 00:38:16;;;;;;;8.85;2.53;;;;;;;7.12;100.00;98477.13;5044504;28;20052;-69
2023/11/04 00:40:44;;;;;;;6.10;2.50;;;;;;;7.11;100.00;98478.91;5042205;28;20068;-68
2023/11/04 00:43:09;;;;;;;9.00;2.60;;;;;;;7.11;100.00;98475.41;5044020;28;20379;-68
2023/11/04 00:45:35;;;;;;;9.43;2.70;;;;;;;7.10;100.00;98465.78;5042928;28;20025;-67
2023/11/04 00:48:00;;;;;;;6.55;2.70;;;;;;;7.11;100.00;98480.66;5041246;28;20033;-69
2023/11/04 00:50:26;;;;;;;9.32;2.70;;;;;;;7.27;100.00;98476.84;5043570;28;20033;-69
2023/11/04 00:52:52;;;;;;;8.68;2.80;;;;;;;7.30;100.00;98476.78;5041195;28;20030;-69
2023/11/04 00:55:18;;;;;;;6.47;2.60;;;;;;;7.39;100.00;98475.72;5037582;28;20025;-66
2023/11/04 00:57:43;;;;;;;7.93;2.80;;;;;;;7.33;100.00;98500.38;5043993;28;20083;-66
2023/11/04 01:00:10;;;;;;;12.30;3.10;;;;;;;7.43;100.00;98477.41;5042076;28;20032;-69
2023/11/04 01:02:35;;;;;;;9.25;2.83;;;;;;;7.39;100.00;98470.47;5042838;28;20029;-69
2023/11/04 01:05:00;;;;;;;7.88;2.90;;;;;;;7.42;100.00;98469.53;5043199;28;20107;-69
2023/11/04 01:07:26;;;;;;;10.27;2.83;;;;;;;7.46;100.00;98472.06;5041711;28;20025;-70
2023/11/04 01:09:51;;;;;;;7.78;2.88;;;;;;;7.49;100.00;98469.38;5044644;28;20029;-67
2023/11/04 01:12:17;;;;;;;8.38;2.80;;;;;;;7.49;100.00;98465.88;5041210;28;20026;-67
2023/11/04 01:14:42;;;;;;;10.00;2.90;;;;;;;7.46;100.00;98472.06;5043773;28;20067;-69
2023/11/04 01:17:07;;;;;;;8.93;2.80;;;;;;;7.45;100.00;98474.72;5042339;28;20523;-69
2023/11/04 01:19:33;;;;;;;9.52;3.10;;;;;;;7.56;100.00;98471.88;5042318;28;20044;-69
2023/11/04 01:21:58;;;;;;;9.70;3.10;;;;;;;7.57;100.00;98468.34;5043485;28;20032;-67
2023/11/04 01:24:23;;;;;;;8.02;2.97;;;;;;;7.64;100.00;98472.56;5040825;28;20073;-66
2023/11/04 01:26:52;;;;;;;9.48;3.20;;;;;;;7.64;100.00;98468.16;5044436;28;20024;-69
2023/11/04 01:29:18;;;;;;;11.27;3.10;;;;;;;7.68;100.00;98464.59;5036913;28;20044;-70
2023/11/04 01:31:44;;;;;;;8.48;3.00;;;;;;;7.64;100.00;98465.53;5043460;28;20383;-69
2023/11/04 01:34:10;;;;;;;12.13;3.30;;;;;;;7.66;100.00;98461.13;5041544;28;20044;-68
2023/11/04 01:36:36;;;;;;;9.45;3.10;;;;;;;7.67;100.00;98451.47;5042561;28;20036;-70
2023/11/04 01:39:01;;;;;;;8.25;3.15;;;;;;;7.64;100.00;98455.03;5042850;28;20040;-69
2023/11/04 01:41:27;;;;;;;9.07;3.30;;;;;;;7.72;100.00;98456.63;5040985;28;20112;-70
2023/11/04 01:43:52;;;;;;;9.70;3.20;;;;;;;7.67;100.00;98448.84;5044288;28;20025;-70
2023/11/04 01:46:21;;;;;;;11.05;3.15;;;;;;;7.71;100.00;98436.50;5040614;28;20127;-70
2023/11/04 01:48:47;;;;;;;12.32;3.47;;;;;;;7.75;100.00;98446.06;5043676;28;20028;-69
2023/11/04 01:51:16;;;;;;;10.75;3.60;;;;;;;7.70;100.00;98443.50;5041638;28;20053;-69
2023/11/04 01:53:46;;;;;;;11.95;3.38;;;;;;;7.70;100.00;98438.25;5043146;28;20032;-69
2023/11/04 01:56:13;;;;;;;11.77;3.60;;;;;;;7.72;100.00;98441.72;5041460;28;20415;-69
2023/11/04 01:58:39;;;;;;;12.45;3.60;;;;;;;7.77;100.00;98434.59;5042800;28;20053;-69
2023/11/04 02:01:04;;;;;;;12.27;3.50;;;;;;;7.79;100.00;98443.31;5042179;28;20067;-69
2023/11/04 02:03:30;;;;;;;11.77;3.33;;;;;;;7.78;100.00;98431.06;5044552;28;20455;-69
2023/11/04 02:05:56;;;;;;;10.13;3.40;;;;;;;7.77;100.00;98433.72;5047433;28;20037;-69
2023/11/04 02:08:21;;;;;;;10.80;3.60;;;;;;;7.71;100.00;98431.25;5044428;28;20029;-69
2023/11/04 02:10:47;;;;;;;14.35;3.50;;;;;;;7.74;100.00;98429.41;5047371;28;20029;-69
2023/11/04 02:13:12;;;;;;;12.00;3.50;;;;;;;7.78;100.00;98428.44;5045038;28;20115;-70
2023/11/04 02:15:38;;;;;;;11.45;3.47;;;;;;;7.80;100.00;98423.13;5046179;28;20029;-69
2023/11/04 02:18:03;;;;;;;8.93;3.42;;;;;;;7.78;100.00;98424.94;5045981;28;20128;-69
2023/11/04 02:20:33;;;;;;;9.07;3.30;;;;;;;7.77;100.00;98420.59;5043643;28;20029;-69
2023/11/04 02:22:58;;;;;;;14.43;3.70;;;;;;;7.83;100.00;98423.06;5046824;28;20029;-70
2023/11/04 02:25:28;;;;;;;13.07;3.80;;;;;;;7.83;100.00;98420.44;5044008;28;20072;-68
2023/11/04 02:27:54;;;;;;;10.30;3.50;;;;;;;7.76;100.00;98425.00;5047318;28;20029;-69
2023/11/04 02:30:19;;;;;;;11.77;3.80;;;;;;;7.59;100.00;98420.09;5043611;28;20160;-70
2023/11/04 02:32:45;;;;;;;15.75;4.00;;;;;;;7.46;100.00;98416.00;5046745;28;20069;-70
2023/11/04 02:35:10;;;;;;;12.50;3.85;;;;;;;7.38;100.00;98424.03;5044872;28;20029;-67
2023/11/04 02:37:35;;;;;;;15.05;4.00;;;;;;;7.47;100.00;98431.75;5045397;28;20395;-69
2023/11/04 02:40:01;;;;;;;13.82;4.00;;;;;;;7.49;100.00;98439.59;5046060;28;20083;-69
2023/11/04 02:42:27;;;;;;;12.98;3.95;;;;;;;7.56;100.00;98432.44;5044051;28;20526;-72
2023/11/04 02:44:52;;;;;;;15.13;4.10;;;;;;;7.62;100.00;98427.91;5046940;28;20029;-68
2023/11/04 02:47:17;;;;;;;14.40;4.18;;;;;;;7.67;100.00;98423.44;5043745;28;20097;-67
2023/11/04 02:49:43;;;;;;;15.18;4.50;;;;;;;7.59;100.00;98419.25;5045999;28;20029;-69
2023/11/04 02:52:08;;;;;;;14.80;4.60;;;;;;;7.50;100.00;98418.53;5043638;28;20048;-69
2023/11/04 02:54:33;;;;;;;15.98;4.75;;;;;;;7.33;100.00;98418.88;5044971;28;20384;-69
2023/11/04 02:56:59;;;;;;;15.10;4.70;;;;;;;7.21;100.00;98408.66;5046033;28;20032;-67
2023/11/04 02:59:26;;;;;;;16.67;4.90;;;;;;;7.18;100.00;98413.97;5043243;28;20021;-69
2023/11/04 03:01:51;;;;;;;16.45;5.43;;;;;;;7.16;100.00;98415.75;5046918;28;20102;-66
2023/11/04 03:04:17;;;;;;;17.30;5.50;;;;;;;7.03;100.00;98416.88;5043344;28;20021;-69
2023/11/04 03:06:42;;;;;;;16.65;5.45;;;;;;;7.02;100.00;98412.53;5045443;28;20034;-69
2023/11/04 03:09:07;;;;;;;17.55;5.63;;;;;;;7.01;100.00;98416.06;5044788;28;20056;-68
2023/11/04 03:11:32;;;;;;;19.77;6.47;;;;;;;6.95;100.00;98422.31;5044258;28;20403;-67
2023/11/04 03:13:58;;;;;;;18.38;6.35;;;;;;;6.94;100.00;98421.41;5045437;28;20468;-67
2023/11/04 03:16:23;;;;;;;18.65;6.18;;;;;;;6.93;100.00;98424.97;5043125;28;20065;-69
2023/11/04 03:18:49;;;;;;;18.15;6.45;;;;;;;6.92;100.00;98428.47;5038781;28;20033;-69
2023/11/04 03:21:15;;;;;;;19.05;6.82;;;;;;;6.92;100.00;98428.47;5045671;28;20116;-68
2023/11/04 03:23:41;;;;;;;19.63;6.80;;;;;;;6.94;100.00;98421.41;5043754;28;20081;-68
2023/11/04 03:26:10;;;;;;;18.30;7.00;;;;;;;6.94;100.00;98418.78;5043188;28;20108;-67
2023/11/04 03:28:36;;;;;;;19.48;7.18;;;;;;;6.95;100.00;98420.53;5044839;28;20033;-68
2023/11/04 03:31:05;;;;;;;19.35;7.20;;;;;;;6.97;100.00;98420.50;5043497;28;20068;-68
2023/11/04 03:33:30;;;;;;;20.17;7.45;;;;;;;6.95;100.00;98403.91;5045115;28;20106;-68
2023/11/04 03:35:56;;;;;;;20.15;8.20;;;;;;;6.92;100.00;98414.50;5042913;28;20053;-68
2023/11/04 03:38:21;;;;;;;19.88;8.07;;;;;;;6.91;100.00;98418.00;5045959;28;20116;-68
2023/11/04 03:40:47;;;;;;;21.63;8.18;;;;;;;6.93;100.00;98418.81;5042652;28;20080;-68
2023/11/04 03:43:12;;;;;;;20.95;8.93;;;;;;;6.90;100.00;98411.88;5045075;28;20468;-69
2023/11/04 03:45:37;;;;;;;21.70;8.88;;;;;;;6.89;100.00;98417.19;5043963;28;20029;-68
2023/11/04 03:48:03;;;;;;;21.33;8.70;;;;;;;6.87;100.00;98413.69;5043496;28;20037;-69
2023/11/04 03:50:28;;;;;;;20.30;9.23;;;;;;;6.88;100.00;98408.41;5045481;28;20517;-69
2023/11/04 03:52:55;;;;;;;20.80;9.57;;;;;;;6.89;100.00;98402.28;5042098;28;20025;-69
2023/11/04 03:55:21;;;;;;;21.83;9.85;;;;;;;6.87;100.00;98397.94;5038364;28;20032;-68
2023/11/04 03:57:46;;;;;;;22.20;9.68;;;;;;;6.86;100.00;98385.69;5044099;28;20037;-68
2023/11/04 04:00:12;;;;;;;21.23;9.50;;;;;;;6.89;100.00;98389.13;5042957;28;20029;-69
2023/11/04 04:02:37;;;;;;;21.83;10.10;;;;;;;6.83;100.00;98381.38;5043750;28;20392;-68
2023/11/04 04:05:03;;;;;;;21.58;10.30;;;;;;;6.85;100.00;98376.97;5044476;28;20200;-69
2023/11/04 04:07:29;;;;;;;22.13;10.35;;;;;;;6.84;100.00;98377.84;5042469;28;20029;-69
2023/11/04 04:09:54;;;;;;;22.10;10.50;;;;;;;6.84;100.00;98372.59;5045397;28;20074;-69
2023/11/04 04:12:19;;;;;;;21.98;10.70;;;;;;;6.85;100.00;98374.34;5038066;28;20034;-69
2023/11/04 04:14:45;;;;;;;22.20;11.43;;;;;;;6.88;100.00;98373.41;5044556;28;20475;-69
2023/11/04 04:17:10;;;;;;;22.35;10.98;;;;;;;6.90;100.00;98364.63;5043179;28;20025;-69
2023/11/04 04:19:38;;;;;;;22.52;10.95;;;;;;;6.94;100.00;98368.88;5043244;28;20029;-69
2023/11/04 04:22:04;;;;;;;22.70;11.00;;;;;;;6.95;100.00;98354.88;5043709;28;20107;-69
2023/11/04 04:24:29;;;;;;;22.92;10.63;;;;;;;6.95;100.00;98357.50;5041813;28;20101;-69
2023/11/04 04:26:55;;;;;;;21.42;10.90;;;;;;;7.01;100.00;98358.28;5044916;28;20468;-68
2023/11/04 04:29:23;;;;;;;23.30;11.05;;;;;;;6.97;100.00;98353.09;5041409;28;20133;-69
2023/11/04 04:31:50;;;;;;;24.92;12.02;;;;;;;6.96;100.00;98355.72;5045102;28;20183;-70
2023/11/04 04:34:15;;;;;;;23.15;11.30;;;;;;;7.01;100.00;98353.88;5042033;28;20040;-70
2023/11/04 04:36:40;;;;;;;23.10;11.05;;;;;;;7.01;100.00;98358.28;5043606;28;20041;-69
2023/11/04 04:39:07;;;;;;;21.92;10.35;;;;;;;7.00;100.00;98356.53;5043188;28;20047;-69
2023/11/04 04:41:32;;;;;;;22.77;10.40;;;;;;;7.01;100.00;98348.63;5042325;28;20496;-69
2023/11/04 04:43:58;;;;;;;21.90;10.25;;;;;;;7.05;100.00;98349.41;5044227;28;20035;-68
2023/11/04 04:46:23;;;;;;;22.67;10.73;;;;;;;7.04;100.00;98353.81;5041584;28;20419;-69
2023/11/04 04:48:48;;;;;;;22.48;10.30;;;;;;;7.05;100.00;98339.78;5044437;28;20526;-65
2023/11/04 04:51:16;;;;;;;22.27;10.32;;;;;;;7.07;100.00;98337.13;5041971;28;20021;-65
2023/11/04 04:53:43;;;;;;;21.05;9.95;;;;;;;7.07;100.00;98337.13;5043835;28;20384;-65
2023/11/04 04:56:08;;;;;;;21.35;9.55;;;;;;;7.05;100.00;98326.66;5042693;28;20033;-65
2023/11/04 04:58:34;;;;;;;22.13;9.68;;;;;;;7.07;100.00;98331.88;5042196;28;20025;-65
2023/11/04 05:01:00;;;;;;;21.98;9.60;;;;;;;7.06;100.00;98319.63;5043957;28;20056;-65
2023/11/04 05:03:26;;;;;;;22.90;10.20;;;;;;;7.05;100.00;98320.50;5041064;28;20108;-64
2023/11/04 05:05:52;;;;;;;24.75;10.10;;;;;;;7.01;100.00;98322.34;5043174;28;20123;-64
2023/11/04 05:08:17;;;;;;;21.80;9.63;;;;;;;7.00;100.00;98319.75;5040113;28;20025;-65
2023/11/04 05:10:42;;;;;;;22.27;10.00;;;;;;;7.00;100.00;98304.84;5043247;28;20556;-64
2023/11/04 05:13:08;;;;;;;23.27;9.82;;;;;;;7.04;100.00;98309.16;5042760;28;20033;-67
2023/11/04 05:15:33;;;;;;;23.98;9.88;;;;;;;7.02;100.00;98312.69;5042127;28;20083;-64
2023/11/04 05:17:59;;;;;;;21.48;9.32;;;;;;;7.05;100.00;98302.13;5043652;28;20057;-64
2023/11/04 05:20:24;;;;;;;23.20;8.40;;;;;;;7.05;100.00;98313.50;5040984;28;20052;-65
2023/11/04 05:22:49;;;;;;;20.60;8.23;;;;;;;7.03;100.00;98309.19;5044009;28;20511;-63
2023/11/04 05:25:15;;;;;;;23.10;7.72;;;;;;;7.06;100.00;98310.00;5041336;28;20034;-65
2023/11/04 05:27:41;;;;;;;21.95;7.68;;;;;;;7.01;100.00;98303.97;5041778;28;20025;-65
2023/11/04 05:30:06;;;;;;;21.00;7.10;;;;;;;7.03;100.00;98294.28;5042290;28;20151;-69
2023/11/04 05:32:32;;;;;;;22.05;7.07;;;;;;;7.03;100.00;98304.78;5041710;28;20026;-69
2023/11/04 05:34:58;;;;;;;20.75;7.00;;;;;;;7.03;100.00;98294.28;5043848;28;20020;-68
2023/11/04 05:37:23;;;;;;;20.98;6.60;;;;;;;7.00;100.00;98298.75;5044077;28;20041;-69
2023/11/04 05:39:49;;;;;;;20.27;6.85;;;;;;;7.01;100.00;98297.84;5047811;28;20056;-69
2023/11/04 05:42:14;;;;;;;21.58;6.90;;;;;;;7.02;100.00;98283.81;5045574;28;20029;-69
2023/11/04 05:44:39;;;;;;;20.20;6.43;;;;;;;6.96;100.00;98280.44;5046596;28;20029;-69
2023/11/04 05:47:05;;;;;;;19.35;6.40;;;;;;;6.93;100.00;98267.38;5046660;28;20114;-69
2023/11/04 05:49:30;;;;;;;20.45;6.10;;;;;;;6.94;100.00;98270.84;5045349;28;20523;-69
2023/11/04 05:51:55;;;;;;;20.55;6.53;;;;;;;6.91;100.00;98263.88;5047979;28;20036;-69
2023/11/04 05:54:21;;;;;;;21.42;6.20;;;;;;;6.84;100.00;98256.19;5044670;28;20033;-69
2023/11/04 05:56:46;;;;;;;19.00;6.07;;;;;;;6.77;100.00;98256.31;5047160;28;20044;-69
2023/11/04 05:59:11;;;;;;;19.00;6.40;;;;;;;6.75;100.00;98259.88;5045866;28;20383;-69
2023/11/04 06:01:37;;;;;;;19.52;6.00;;;;;;;6.69;100.00;98254.75;5046116;28;20048;-69
2023/11/04 06:04:02;;;;;;;19.58;6.18;;;;;;;6.65;100.00;98253.94;5046794;28;20032;-70
2023/11/04 06:06:28;;;;;;;19.88;5.90;;;;;;;6.66;100.00;98254.84;5044601;28;20034;-69
2023/11/04 06:08:54;;;;;;;17.85;5.70;;;;;;;6.71;100.00;98245.09;5047898;28;20041;-69
2023/11/04 06:11:20;;;;;;;19.15;5.85;;;;;;;6.75;100.00;98244.97;5044458;28;20061;-69
2023/11/04 06:13:45;;;;;;;21.13;5.90;;;;;;;6.77;100.00;98242.31;5046701;28;20377;-70
2023/11/04 06:16:10;;;;;;;18.95;5.53;;;;;;;6.80;100.00;98234.38;5045925;28;20056;-70
2023/11/04 06:18:39;;;;;;;19.63;5.88;;;;;;;6.78;100.00;98239.66;5045437;28;20425;-70
2023/11/04 06:21:05;;;;;;;18.88;5.28;;;;;;;6.83;100.00;98234.31;5046441;28;20455;-71
2023/11/04 06:23:30;;;;;;;19.05;5.30;;;;;;;6.77;100.00;98237.94;5044858;28;20040;-70
2023/11/04 06:25:56;;;;;;;21.45;5.50;;;;;;;6.78;100.00;98231.78;5047292;28;20029;-70
2023/11/04 06:28:21;;;;;;;18.50;5.60;;;;;;;6.72;100.00;98224.03;5043778;28;20040;-71
2023/11/04 06:30:46;;;;;;;18.42;5.10;;;;;;;6.63;100.00;98219.84;5046619;28;20076;-69
2023/11/04 06:33:12;;;;;;;19.92;5.45;;;;;;;6.60;100.00;98216.44;5044872;28;20078;-69
2023/11/04 06:35:38;;;;;;;18.95;5.20;;;;;;;6.52;100.00;98229.72;5045613;28;20022;-68
2023/11/04 06:38:03;;;;;;;18.20;4.68;;;;;;;6.54;100.00;98222.69;5046230;28;20035;-69
2023/11/04 06:40:28;;;;;;;18.17;4.88;;;;;;;6.56;100.00;98230.53;5044113;28;20121;-69
2023/11/04 06:42:54;;;;;;;17.63;4.70;;;;;;;6.52;100.00;98220.97;5047425;28;20396;-69
2023/11/04 06:45:19;;;;;;;19.15;4.90;;;;;;;6.53;100.00;98220.94;5043808;28;20030;-68
2023/11/04 06:47:44;;;;;;;19.42;4.65;;;;;;;6.49;100.00;98219.28;5045225;28;20029;-67
2023/11/04 06:50:10;;;;;;;17.02;4.55;;;;;;;6.47;100.00;98214.97;5045153;28;20068;-68
2023/11/04 06:52:36;;;;;;;19.38;4.78;;;;;;;6.51;100.00;98206.13;5044696;28;20061;-67
2023/11/04 06:55:02;;;;;;;18.13;4.72;;;;;;;6.47;100.00;98210.59;5046009;28;20547;-64
2023/11/04 06:57:28;;;;;;;18.10;4.22;;;;;;;6.53;100.00;98205.19;5043589;28;20096;-69
2023/11/04 06:59:53;;;;;;;17.67;4.53;;;;;;;6.50;100.00;98202.66;5046558;28;20033;-68
2023/11/04 07:02:22;;;;;;;17.58;4.43;;;;;;;6.49;100.00;98202.69;5043528;28;20365;-68
2023/11/04 07:04:47;;;;;;;16.55;4.05;;;;;;;6.42;100.00;98207.19;5046180;28;20472;-67
2023/11/04 07:07:12;;;;;;;19.02;4.28;;;;;;;6.40;100.00;98190.63;5044341;28;20048;-69
2023/11/04 07:09:38;;;;;;;17.65;4.22;;;;;;;6.37;100.00;98190.69;5044581;28;20468;-68
2023/11/04 07:12:04;;;;;;;16.05;4.18;;;;;;;6.37;100.00;98188.06;5045677;28;20050;-69
2023/11/04 07:14:31;;;;;;;15.63;4.20;;;;;;;6.41;100.00;98184.47;5043613;28;20381;-68
2023/11/04 07:16:57;;;;;;;17.63;4.13;;;;;;;6.41;100.00;98179.22;5046269;28;20033;-69
2023/11/04 07:19:22;;;;;;;16.52;4.18;;;;;;;6.52;100.00;98181.59;5039213;28;20035;-69
2023/11/04 07:21:48;;;;;;;17.55;4.20;;;;;;;6.51;100.00;98172.88;5045686;28;20101;-69
2023/11/04 07:24:13;;;;;;;15.02;3.85;;;;;;;6.53;100.00;98165.81;5043905;28;20044;-68
2023/11/04 07:26:38;;;;;;;16.73;4.15;;;;;;;6.62;100.00;98160.34;5043244;28;20029;-69
2023/11/04 07:29:04;;;;;;;13.73;3.88;;;;;;;6.63;100.00;98156.84;5044796;28;20025;-69
2023/11/04 07:31:31;;;;;;;17.70;4.32;;;;;;;6.63;100.00;98166.50;5043042;28;20068;-69
2023/11/04 07:33:57;;;;;;;17.92;3.90;;;;;;;6.66;100.00;98161.19;5046020;28;20029;-70
2023/11/04 07:36:26;;;;;;;14.85;4.20;;;;;;;6.68;100.00;98154.13;5038674;28;20392;-68
2023/11/04 07:38:52;;;;;;;14.07;3.80;;;;;;;6.74;100.00;98153.13;5038919;28;20033;-69
2023/11/04 07:41:18;;;;;;;17.27;4.20;;;;;;;6.73;100.00;98154.03;5043822;28;20075;-69
2023/11/04 07:43:44;;;;;;;16.95;4.07;;;;;;;6.81;100.00;98154.69;5043500;28;20071;-69
2023/11/04 07:46:09;;;;;;;16.85;4.10;;;;;;;6.84;100.00;98143.28;5044089;28;20383;-69
2023/11/04 07:48:35;;;;;;;15.45;3.80;;;;;;;6.87;100.00;98145.81;5044711;28;20529;-69
2023/11/04 07:51:01;;;;;;;14.95;4.00;;;;;;;6.95;100.00;98134.22;5042807;28;20025;-69
2023/11/04 07:53:27;;;;;;;15.35;3.85;;;;;;;7.06;100.00;98123.47;5045849;28;20021;-69
2023/11/04 07:55:52;;;;;;;16.27;3.65;;;;;;;7.14;100.00;98129.38;5038258;28;20105;-69
2023/11/04 07:58:18;;;;;;;15.35;3.60;;;;;;;7.19;100.00;98125.78;5045035;28;20099;-69
2023/11/04 08:00:44;;;;;;;13.90;3.50;;;;;;;7.25;100.00;98117.75;5042104;28;20479;-69
2023/11/04 08:03:10;;;;;;;14.13;3.55;;;;;;;7.37;100.00;98124.44;5043832;28;20029;-69
2023/11/04 08:05:40;;;;;;;16.90;3.70;;;;;;;7.46;100.00;98101.41;5044058;28;20395;-68
2023/11/04 08:08:06;;;;;;;15.38;3.45;;;;;;;7.53;100.00;98086.34;5043314;28;20046;-69
2023/11/04 08:10:32;;;;;;;15.18;3.35;;;;;;;7.62;100.00;98091.34;5045000;28;20417;-69
2023/11/04 08:12:58;;;;;;;15.45;3.17;;;;;;;7.73;100.00;98079.66;5041958;28;20030;-69
2023/11/04 08:15:23;;;;;;;13.75;3.28;;;;;;;7.75;100.00;98065.59;5045377;28;20025;-69
2023/11/04 08:17:49;;;;;;;13.02;3.22;;;;;;;7.81;100.00;98056.66;5042233;28;20057;-70
2023/11/04 08:20:15;;;;;;;12.02;3.20;;;;;;;7.78;100.00;98056.75;5044075;28;20373;-69
2023/11/04 08:22:44;;;;;;;12.07;3.08;;;;;;;7.81;100.00;98046.13;5043484;28;20036;-69
2023/11/04 08:25:10;;;;;;;11.50;3.10;;;;;;;7.90;100.00;98039.75;5043397;28;20021;-68
2023/11/04 08:27:35;;;;;;;13.13;3.20;;;;;;;8.03;100.00;98031.44;5043884;28;20071;-67
2023/11/04 08:30:03;;;;;;;9.80;2.88;;;;;;;8.29;100.00;98027.16;5040742;28;20053;-69
2023/11/04 08:32:28;;;;;;;11.55;2.88;;;;;;;8.58;100.00;98017.50;5044762;28;20112;-68
2023/11/04 08:34:56;;;;;;;8.32;2.80;;;;;;;8.90;100.00;98008.53;5041309;28;20109;-70
2023/11/04 08:37:22;;;;;;;10.95;2.80;;;;;;;9.20;100.00;98000.50;5045010;28;20037;-67
2023/11/04 08:39:47;;;;;;;10.77;2.55;;;;;;;9.53;100.00;97994.06;5042024;28;20388;-67
2023/11/04 08:42:12;;;;;;;8.98;2.65;;;;;;;9.79;100.00;97990.44;5043294;28;20041;-68
2023/11/04 08:44:38;;;;;;;8.05;2.47;;;;;;;10.02;100.00;97984.28;5043304;28;20117;-70
2023/11/04 08:47:03;;;;;;;9.10;2.72;;;;;;;10.25;100.00;97982.50;5042044;28;20535;-67
2023/11/04 08:49:28;;;;;;;11.80;2.88;;;;;;;10.40;100.00;97973.16;5044540;28;20035;-70
2023/11/04 08:51:54;;;;;;;10.02;2.88;;;;;;;10.52;100.00;97967.38;5041378;28;20113;-69
2023/11/04 08:54:20;;;;;;;11.48;2.70;;;;;;;10.69;100.00;97964.03;5042810;28;20189;-69
2023/11/04 08:56:48;;;;;;;11.35;2.90;;;;;;;10.65;100.00;97962.44;5042286;28;20113;-66
2023/11/04 08:59:14;;;;;;;11.23;2.70;;;;;;;10.59;100.00;97957.44;5043333;28;20124;-70
2023/11/04 09:01:40;;;;;;;10.05;2.80;;;;;;;10.61;100.00;97960.84;5042596;28;20036;-70
2023/11/04 09:04:05;;;;;;;12.30;3.20;;;;;;;10.41;100.00;97943.19;5042285;28;20083;-70
2023/11/04 09:06:31;;;;;;;11.10;2.78;;;;;;;10.18;100.00;97946.72;5044055;28;20408;-69
2023/11/04 09:08:57;;;;;;;9.35;2.80;;;;;;;10.08;100.00;97939.16;5040933;28;20029;-69
2023/11/04 09:11:23;;;;;;;12.77;2.70;;;;;;;9.88;100.00;97947.00;5044452;28;20040;-69
2023/11/04 09:13:48;;;;;;;12.65;3.10;;;;;;;9.87;100.00;97942.66;5041379;28;20025;-70
2023/11/04 09:16:13;;;;;;;11.20;2.80;;;;;;;9.84;100.00;97942.78;5042947;28;20100;-69
2023/11/04 09:18:39;;;;;;;11.23;2.60;;;;;;;9.70;100.00;97933.63;5042841;28;20100;-69
2023/11/04 09:21:05;;;;;;;12.50;2.80;;;;;;;9.60;100.00;97924.34;5041649;28;20392;-71
2023/11/04 09:23:31;;;;;;;12.32;2.80;;;;;;;9.52;100.00;97932.56;5043902;28;20032;-70
2023/11/04 09:25:56;;;;;;;10.57;2.78;;;;;;;9.44;100.00;97924.06;5040830;28;20074;-70
2023/11/04 09:28:22;;;;;;;12.50;2.90;;;;;;;9.40;100.00;97915.38;5042679;28;20033;-70
2023/11/04 09:30:48;;;;;;;11.10;2.70;;;;;;;9.37;100.00;97925.19;5041236;28;20045;-70
2023/11/04 09:33:15;;;;;;;10.18;2.97;;;;;;;9.34;100.00;97907.72;5042146;28;20073;-70
2023/11/04 09:35:41;;;;;;;15.23;2.90;;;;;;;9.41;100.00;97903.94;5042472;28;20130;-69
2023/11/04 09:38:06;;;;;;;10.85;2.80;;;;;;;9.41;100.00;97903.94;5041730;28;20026;-70
2023/11/04 09:40:32;;;;;;;7.78;2.80;;;;;;;9.45;100.00;97888.88;5043613;28;20037;-70
2023/11/04 09:42:57;;;;;;;11.50;2.67;;;;;;;9.37;100.00;97886.50;5040693;28;20040;-70
2023/11/04 09:45:24;;;;;;;11.98;2.72;;;;;;;9.39;100.00;97878.53;5043955;28;20033;-69
2023/11/04 09:47:50;;;;;;;12.43;2.80;;;;;;;9.42;100.00;97874.03;5041179;28;20544;-70
2023/11/04 09:50:16;;;;;;;12.23;2.60;;;;;;;9.43;100.00;97873.06;5043095;28;20029;-69
2023/11/04 09:52:50;;;;;;;10.98;2.60;;;;;;;9.46;100.00;97872.09;5042296;28;20116;-70
2023/11/04 09:55:18;;;;;;;9.32;2.60;;;;;;;9.49;100.00;97876.41;5042992;28;20032;-70
2023/11/04 09:57:44;;;;;;;12.27;2.70;;;;;;;9.50;100.00;97859.69;5041848;28;20391;-65
2023/11/04 10:00:12;;;;;;;12.30;2.60;;;;;;;9.50;100.00;97859.69;5041854;28;20075;-64
2023/11/04 10:02:38;;;;;;;12.30;2.58;;;;;;;9.55;100.00;97855.06;5042834;28;20056;-64
2023/11/04 10:05:05;;;;;;;11.23;2.58;;;;;;;9.55;100.00;97837.50;5041125;28;20057;-64
2023/11/04 10:07:30;;;;;;;9.52;2.38;;;;;;;9.56;100.00;97818.09;5043474;28;20052;-65
2023/11/04 10:09:55;;;;;;;12.18;2.50;;;;;;;9.59;100.00;97812.69;5040559;28;20460;-64
2023/11/04 10:12:21;;;;;;;9.70;2.45;;;;;;;9.63;100.00;97808.16;5043446;28;20373;-65
2023/11/04 10:14:47;;;;;;;15.50;2.60;;;;;;;9.62;100.00;97806.44;5041259;28;20240;-66
2023/11/04 10:17:13;;;;;;;10.18;2.60;;;;;;;9.63;100.00;97797.63;5041965;28;20120;-65
2023/11/04 10:19:38;;;;;;;10.85;2.47;;;;;;;9.67;100.00;97791.31;5041027;28;20074;-65
2023/11/04 10:22:04;;;;;;;12.98;2.40;;;;;;;9.71;100.00;97787.63;5039472;28;20060;-66
2023/11/04 10:24:29;;;;;;;10.32;2.67;;;;;;;9.65;100.00;97793.13;5046926;28;20038;-65
2023/11/04 10:26:55;;;;;;;9.48;2.50;;;;;;;9.66;100.00;97775.53;5042639;28;20034;-66
2023/11/04 10:29:21;;;;;;;12.13;2.53;;;;;;;9.60;100.00;97771.38;5046849;28;20036;-65
2023/11/04 10:31:47;;;;;;;13.15;2.60;;;;;;;9.57;100.00;97756.53;5044904;28;20037;-65
2023/11/04 10:34:15;;;;;;;12.95;2.65;;;;;;;9.56;100.00;97757.44;5045722;28;20049;-65
2023/11/04 10:36:46;;;;;;;12.38;2.55;;;;;;;9.58;100.00;97760.00;5045768;28;20033;-65
2023/11/04 10:39:13;;;;;;;10.02;2.47;;;;;;;9.54;100.00;97740.81;5045563;28;20018;-65
2023/11/04 10:41:43;;;;;;;11.82;2.30;;;;;;;9.57;100.00;97751.25;5045662;28;20048;-70
2023/11/04 10:44:20;;;;;;;9.48;2.10;;;;;;;9.51;100.00;97748.00;5045072;28;20021;-70
2023/11/04 10:46:45;;;;;;;9.13;2.17;;;;;;;9.34;100.00;97715.25;5044814;28;20037;-68
2023/11/04 10:49:19;;;;;;;9.02;2.10;;;;;;;9.34;100.00;97702.09;5045053;28;20031;-69
2023/11/04 10:52:05;;;;;;;7.65;2.00;;;;;;;9.22;100.00;97706.06;5043506;28;20484;-69
2023/11/04 10:54:40;;;;;;;9.98;2.13;;;;;;;9.05;100.00;97701.47;5040724;28;20029;-69
2023/11/04 10:57:20;;;;;;;7.25;2.10;;;;;;;8.80;100.00;97695.47;5046061;28;20053;-68
2023/11/04 10:59:58;;;;;;;9.85;2.17;;;;;;;8.61;100.00;97697.94;5045432;28;20040;-68
2023/11/04 11:02:26;;;;;;;11.75;2.30;;;;;;;8.34;100.00;97692.72;5039267;28;20108;-69
2023/11/04 11:04:53;;;;;;;11.73;2.40;;;;;;;8.09;100.00;97680.47;5046534;28;20112;-70
2023/11/04 11:07:19;;;;;;;14.20;2.58;;;;;;;7.91;100.00;97686.41;5043963;28;20032;-69
2023/11/04 11:09:45;;;;;;;11.25;2.60;;;;;;;7.77;100.00;97677.19;5045074;28;20037;-69
2023/11/04 11:12:22;;;;;;;11.85;2.25;;;;;;;7.70;100.00;97673.06;5041478;28;20029;-68
2023/11/04 11:14:48;;;;;;;14.57;2.60;;;;;;;7.66;100.00;97666.22;5043901;28;20025;-69
2023/11/04 11:17:14;;;;;;;12.52;2.53;;;;;;;7.59;100.00;97652.41;5044776;28;20053;-69
2023/11/04 11:19:51;;;;;;;13.95;2.50;;;;;;;7.54;100.00;97637.69;5044999;28;20057;-67
2023/11/04 11:22:24;;;;;;;12.35;2.55;;;;;;;7.52;100.00;97636.91;5045285;28;20115;-67